createdAt,value
2023-04-02T00:01:27.933Z,100.00
2023-04-02T00:04:23.776Z,100.00
2023-04-02T00:07:17.524Z,100.00
2023-04-02T00:09:45.787Z,100.00
2023-04-02T00:12:20.116Z,100.00
2023-04-02T00:14:52.032Z,100.00
2023-04-02T00:17:21.779Z,100.00
2023-04-02T00:19:54.938Z,100.00
2023-04-02T00:22:30.016Z,100.00
2023-04-02T00:24:58.487Z,100.00
2023-04-02T00:27:26.442Z,100.00
2023-04-02T00:29:57.166Z,100.00
2023-04-02T00:32:27.840Z,100.00
2023-04-02T00:34:56.798Z,100.00
2023-04-02T00:37:29.655Z,100.00
2023-04-02T00:40:06.645Z,100.00
2023-04-02T00:42:36.004Z,100.00
2023-04-02T00:45:05.270Z,100.00
2023-04-02T00:47:36.484Z,100.00
2023-04-02T00:50:08.978Z,100.00
2023-04-02T00:52:41.042Z,100.00
2023-04-02T00:55:14.167Z,100.00
2023-04-02T00:57:43.259Z,100.00
2023-04-02T01:00:22.068Z,100.00
2023-04-02T01:03:29.976Z,100.00
2023-04-02T01:06:02.817Z,100.00
2023-04-02T01:08:44.970Z,100.00
2023-04-02T01:11:28.732Z,100.00
2023-04-02T01:14:03.767Z,100.00
2023-04-02T01:16:46.709Z,100.00
2023-04-02T01:19:43.858Z,100.00
2023-04-02T01:22:22.149Z,100.00
2023-04-02T01:24:51.831Z,100.00
2023-04-02T01:27:23.614Z,100.00
2023-04-02T01:29:56.775Z,100.00
2023-04-02T01:32:27.207Z,100.00
2023-04-02T01:34:57.038Z,100.00
2023-04-02T01:37:36.834Z,100.00
2023-04-02T01:40:23.262Z,100.00
2023-04-02T01:43:00.203Z,100.00
2023-04-02T01:45:30.191Z,100.00
2023-04-02T01:47:58.348Z,100.00
2023-04-02T01:50:32.266Z,100.00
2023-04-02T01:53:01.388Z,100.00
2023-04-02T01:55:35.468Z,100.00
2023-04-02T01:58:04.841Z,100.00
2023-04-02T02:00:37.540Z,100.00
2023-04-02T02:03:08.522Z,100.00
2023-04-02T02:05:36.928Z,100.00
2023-04-02T02:08:06.874Z,100.00
2023-04-02T02:10:39.823Z,100.00
2023-04-02T02:13:07.837Z,100.00
2023-04-02T02:15:37.553Z,100.00
2023-04-02T02:18:07.270Z,100.00
2023-04-02T02:20:36.783Z,100.00
2023-04-02T02:23:06.027Z,100.00
2023-04-02T02:25:36.932Z,100.00
2023-04-02T02:28:09.281Z,100.00
2023-04-02T02:30:43.780Z,100.00
2023-04-02T02:33:18.626Z,100.00
2023-04-02T02:35:53.963Z,100.00
2023-04-02T02:38:42.179Z,100.00
2023-04-02T02:41:17.585Z,100.00
2023-04-02T02:43:51.306Z,100.00
2023-04-02T02:46:23.478Z,100.00
2023-04-02T02:48:55.068Z,100.00
2023-04-02T02:51:28.652Z,100.00
2023-04-02T02:54:01.493Z,100.00
2023-04-02T02:56:32.304Z,100.00
2023-04-02T02:59:00.435Z,100.00
2023-04-02T03:01:32.201Z,100.00
2023-04-02T03:04:01.789Z,100.00
2023-04-02T03:06:29.942Z,100.00
2023-04-02T03:09:04.845Z,100.00
2023-04-02T03:11:40.356Z,100.00
2023-04-02T03:14:21.317Z,100.00
2023-04-02T03:16:55.053Z,100.00
2023-04-02T03:19:30.417Z,100.00
2023-04-02T03:22:04.129Z,100.00
2023-04-02T03:24:37.975Z,100.00
2023-04-02T03:27:11.400Z,100.00
2023-04-02T03:29:42.676Z,100.00
2023-04-02T03:32:18.546Z,100.00
2023-04-02T03:34:51.394Z,100.00
2023-04-02T03:37:23.900Z,100.00
2023-04-02T03:39:57.572Z,100.00
2023-04-02T03:42:27.494Z,100.00
2023-04-02T03:45:00.030Z,100.00
2023-04-02T03:47:35.642Z,100.00
2023-04-02T03:50:09.116Z,100.00
2023-04-02T03:52:38.638Z,100.00
2023-04-02T03:55:16.096Z,100.00
2023-04-02T03:57:54.002Z,100.00
2023-04-02T04:00:28.332Z,100.00
2023-04-02T04:03:01.193Z,100.00
2023-04-02T04:05:33.330Z,100.00
2023-04-02T04:08:04.641Z,100.00
2023-04-02T04:10:33.817Z,100.00
2023-04-02T04:13:07.437Z,100.00
2023-04-02T04:15:41.660Z,100.00
2023-04-02T04:18:21.658Z,100.00
2023-04-02T04:20:56.812Z,100.00
2023-04-02T04:23:31.197Z,100.00
2023-04-02T04:26:02.036Z,100.00
2023-04-02T04:28:38.669Z,100.00
2023-04-02T04:31:18.133Z,100.00
2023-04-02T04:33:54.866Z,100.00
2023-04-02T04:36:28.771Z,100.00
2023-04-02T04:39:01.435Z,100.00
2023-04-02T04:41:33.201Z,100.00
2023-04-02T04:44:08.376Z,100.00
2023-04-02T04:46:40.746Z,100.00
2023-04-02T04:49:15.768Z,100.00
2023-04-02T04:51:49.068Z,100.00
2023-04-02T04:54:18.652Z,100.00
2023-04-02T04:56:49.462Z,100.00
2023-04-02T04:59:23.008Z,100.00
2023-04-02T05:01:56.474Z,100.00
2023-04-02T05:04:32.685Z,100.00
2023-04-02T05:07:06.216Z,100.00
2023-04-02T05:09:39.085Z,100.00
2023-04-02T05:12:17.573Z,100.00
2023-04-02T05:14:52.587Z,100.00
2023-04-02T05:17:24.658Z,100.00
2023-04-02T05:19:58.124Z,100.00
2023-04-02T05:22:31.769Z,100.00
2023-04-02T05:25:12.429Z,100.00
2023-04-02T05:27:47.280Z,100.00
2023-04-02T05:30:38.594Z,100.00
2023-04-02T05:33:16.725Z,100.00
2023-04-02T05:35:49.612Z,100.00
2023-04-02T05:38:22.009Z,100.00
2023-04-02T05:40:55.828Z,100.00
2023-04-02T05:43:25.920Z,100.00
2023-04-02T05:45:56.651Z,100.00
2023-04-02T05:48:30.000Z,100.00
2023-04-02T05:51:00.195Z,100.00
2023-04-02T05:53:32.932Z,100.00
2023-04-02T05:56:07.132Z,100.00
2023-04-02T05:58:39.596Z,100.00
2023-04-02T06:01:21.147Z,100.00
2023-04-02T06:03:58.453Z,100.00
2023-04-02T06:06:47.857Z,100.00
2023-04-02T06:09:20.947Z,100.00
2023-04-02T06:11:53.980Z,100.00
2023-04-02T06:14:22.027Z,100.00
2023-04-02T06:16:50.225Z,100.00
2023-04-02T06:19:23.637Z,100.00
2023-04-02T06:21:59.472Z,100.00
2023-04-02T06:24:31.103Z,100.00
2023-04-02T06:27:03.459Z,100.00
2023-04-02T06:29:39.598Z,100.00
2023-04-02T06:32:09.937Z,100.00
2023-04-02T06:34:40.087Z,100.00
2023-04-02T06:37:18.634Z,100.00
2023-04-02T06:39:46.689Z,100.00
2023-04-02T06:42:18.901Z,100.00
2023-04-02T06:44:47.366Z,100.00
2023-04-02T06:47:25.659Z,100.00
2023-04-02T06:49:59.469Z,100.00
2023-04-02T06:52:34.911Z,100.00
2023-04-02T06:55:16.001Z,100.00
2023-04-02T06:57:43.947Z,100.00
2023-04-02T07:00:27.037Z,100.00
2023-04-02T07:02:56.710Z,100.00
2023-04-02T07:05:25.048Z,100.00
2023-04-02T07:07:54.612Z,100.00
2023-04-02T07:10:22.505Z,100.00
2023-04-02T07:12:50.582Z,100.00
2023-04-02T07:15:20.258Z,100.00
2023-04-02T07:17:48.821Z,100.00
2023-04-02T07:20:29.148Z,100.00
2023-04-02T07:22:59.039Z,100.00
2023-04-02T07:25:28.307Z,100.00
2023-04-02T07:27:57.109Z,100.00
2023-04-02T07:30:25.089Z,100.00
2023-04-02T07:32:53.078Z,100.00
2023-04-02T07:35:21.024Z,100.00
2023-04-02T07:37:49.057Z,100.00
2023-04-02T07:40:20.760Z,100.00
2023-04-02T07:42:48.765Z,100.00
2023-04-02T07:45:17.079Z,100.00
2023-04-02T07:47:46.257Z,100.00
2023-04-02T07:50:14.309Z,100.00
2023-04-02T07:52:43.260Z,100.00
2023-04-02T07:55:12.659Z,100.00
2023-04-02T07:57:48.487Z,100.00
2023-04-02T08:00:17.632Z,100.00
2023-04-02T08:02:45.997Z,100.00
2023-04-02T08:05:14.386Z,100.00
2023-04-02T08:07:42.999Z,100.00
2023-04-02T08:10:12.845Z,100.00
2023-04-02T08:12:42.097Z,100.00
2023-04-02T08:15:15.209Z,100.00
2023-04-02T08:17:43.668Z,100.00
2023-04-02T08:20:18.150Z,100.00
2023-04-02T08:22:46.550Z,100.00
2023-04-02T08:25:14.866Z,100.00
2023-04-02T08:27:45.285Z,100.00
2023-04-02T08:30:14.232Z,100.00
2023-04-02T08:32:42.321Z,100.00
2023-04-02T08:35:11.541Z,100.00
2023-04-02T08:37:50.330Z,100.00
2023-04-02T08:40:24.798Z,100.00
2023-04-02T08:50:25.828Z,100.00
2023-04-02T09:40:26.853Z,92.39
2023-04-02T09:43:13.263Z,91.34
2023-04-02T09:45:57.084Z,88.93
2023-04-02T09:48:44.217Z,87.75
2023-04-02T09:51:19.790Z,85.89
2023-04-02T09:53:49.561Z,85.10
2023-04-02T09:56:22.006Z,87.58
2023-04-02T09:59:05.749Z,86.88
2023-04-02T10:05:54.018Z,80.08
2023-04-02T10:08:28.363Z,81.83
2023-04-02T10:10:59.207Z,82.60
2023-04-02T10:13:32.583Z,80.67
2023-04-02T10:16:05.978Z,78.89
2023-04-02T10:18:47.975Z,77.60
2023-04-02T10:21:19.400Z,77.41
2023-04-02T10:23:48.147Z,75.36
2023-04-02T10:26:47.045Z,81.41
2023-04-02T10:29:32.850Z,82.21
2023-04-02T10:32:08.965Z,79.62
2023-04-02T10:34:44.479Z,81.48
2023-04-02T10:37:48.014Z,83.52
2023-04-02T10:40:54.027Z,81.73
2023-04-02T10:43:40.523Z,83.18
2023-04-02T10:46:21.824Z,82.67
2023-04-02T10:49:02.141Z,84.04
2023-04-02T10:51:38.839Z,80.64
2023-04-02T10:54:29.208Z,81.64
2023-04-02T10:57:06.680Z,83.41
2023-04-02T10:59:36.794Z,84.23
2023-04-02T11:02:25.487Z,79.84
2023-04-02T11:04:57.528Z,81.27
2023-04-02T11:07:31.111Z,80.60
2023-04-02T11:10:00.122Z,82.88
2023-04-02T11:12:42.800Z,83.03
2023-04-02T11:15:17.786Z,84.75
2023-04-02T11:17:53.580Z,87.85
2023-04-02T11:21:06.485Z,84.05
2023-04-02T11:24:00.969Z,81.91
2023-04-02T11:31:13.254Z,72.44
2023-04-02T11:33:46.127Z,72.79
2023-04-02T11:36:54.956Z,69.89
2023-04-02T11:39:56.913Z,73.32
2023-04-02T11:42:30.136Z,73.89
2023-04-02T11:45:01.336Z,77.61
2023-04-02T11:47:31.080Z,82.76
2023-04-02T11:50:06.924Z,76.84
2023-04-02T11:52:39.107Z,79.13
2023-04-02T11:55:25.057Z,77.70
2023-04-02T11:58:12.724Z,77.70
2023-04-02T12:01:24.243Z,80.89
2023-04-02T12:04:14.355Z,78.03
2023-04-02T12:06:57.729Z,76.87
2023-04-02T12:09:28.442Z,82.28
2023-04-02T12:11:59.844Z,80.80
2023-04-02T12:14:43.093Z,77.94
2023-04-02T12:17:19.042Z,77.79
2023-04-02T12:19:52.610Z,74.43
2023-04-02T12:22:25.151Z,74.03
2023-04-02T12:24:55.843Z,73.96
2023-04-02T12:27:27.818Z,72.88
2023-04-02T12:29:57.270Z,76.03
2023-04-02T12:32:31.400Z,74.36
2023-04-02T12:35:01.640Z,69.50
2023-04-02T12:37:32.118Z,69.20
2023-04-02T12:40:03.421Z,66.47
2023-04-02T12:42:34.226Z,69.43
2023-04-02T12:45:04.009Z,65.76
2023-04-02T12:47:32.304Z,67.28
2023-04-02T12:50:02.829Z,63.42
2023-04-02T12:52:32.812Z,62.63
2023-04-02T12:55:03.622Z,66.65
2023-04-02T12:57:39.505Z,59.49
2023-04-02T13:00:33.803Z,62.67
2023-04-02T13:03:03.341Z,59.95
2023-04-02T13:05:37.402Z,60.02
2023-04-02T13:08:07.520Z,61.94
2023-04-02T13:10:36.393Z,64.41
2023-04-02T13:13:05.188Z,62.20
2023-04-02T13:15:36.747Z,62.30
2023-04-02T13:18:08.898Z,60.72
2023-04-02T13:20:39.688Z,64.55
2023-04-02T13:23:33.230Z,56.95
2023-04-02T13:26:05.527Z,57.51
2023-04-02T13:28:33.690Z,57.87
2023-04-02T13:31:03.305Z,57.14
2023-04-02T13:36:44.029Z,65.36
2023-04-02T13:39:36.362Z,59.30
2023-04-02T13:42:26.121Z,57.59
2023-04-02T13:44:58.000Z,61.78
2023-04-02T15:07:53.947Z,86.96
2023-04-02T15:10:44.952Z,87.52
2023-04-02T15:13:45.661Z,91.58
2023-04-02T17:33:29.206Z,100.00
2023-04-02T17:36:26.484Z,100.00
2023-04-02T17:39:09.439Z,100.00
2023-04-02T17:41:45.030Z,100.00
2023-04-02T17:44:34.920Z,100.00
2023-04-02T17:55:59.201Z,100.00
2023-04-02T17:58:50.472Z,100.00
2023-04-02T18:01:24.853Z,100.00
2023-04-02T18:04:10.827Z,100.00
2023-04-02T18:06:46.454Z,100.00
2023-04-02T18:09:35.328Z,100.00
2023-04-02T18:12:17.565Z,100.00
2023-04-02T18:14:59.772Z,100.00
2023-04-02T18:17:35.828Z,100.00
2023-04-02T18:20:20.992Z,100.00
2023-04-02T18:22:58.297Z,100.00
2023-04-02T18:25:40.887Z,100.00
2023-04-02T18:28:34.202Z,100.00
2023-04-02T18:31:24.275Z,100.00
2023-04-02T18:34:36.417Z,100.00
2023-04-02T19:01:38.858Z,100.00
2023-04-02T19:04:28.635Z,100.00
2023-04-02T19:13:38.778Z,100.00
2023-04-02T19:16:31.275Z,100.00
2023-04-02T19:19:44.132Z,100.00
2023-04-02T19:48:03.488Z,100.00
2023-04-02T19:50:36.818Z,100.00
2023-04-02T19:53:31.661Z,100.00
2023-04-02T20:32:42.735Z,100.00
2023-04-02T20:35:15.712Z,100.00
2023-04-02T20:37:51.359Z,100.00
2023-04-02T20:40:22.855Z,100.00
2023-04-02T20:42:53.666Z,100.00
2023-04-02T20:45:35.183Z,100.00
2023-04-02T20:48:04.916Z,100.00
2023-04-02T20:51:01.923Z,100.00
2023-04-02T20:56:50.830Z,100.00
2023-04-02T20:59:38.044Z,100.00
